Time;durP1;ratioP1;P1;durP2;ratioP2;P2;SDS_P1;SDS_P2;PMS_P1;PMS_P2;Temp;Humidity;BMP_temperature;BMP_pressure;BME280_temperature;BME280_humidity;BME280_pressure;Samples;Min_cycle;Max_cycle;Signal;HPM_P1;HPM_P2
2021/10/03 00:00:37;;;;;;;6.28;2.78;;;;;;;19.90;58.65;98026.25;6096414;23;20113;-81
2021/10/03 00:03:10;;;;;;;2.53;2.20;;;;;;;19.88;58.76;98027.44;6096345;23;20030;-81
2021/10/03 00:05:37;;;;;;;;;;;;;;;19.93;58.77;98033.03;6096669;23;20093;-80
2021/10/03 00:08:07;;;;;;;4.57;2.35;;;;;;;20.01;58.26;98019.59;6096358;23;20385;-80
2021/10/03 00:10:34;;;;;;;6.03;2.42;;;;;;;20.03;58.65;98027.38;6097200;23;20411;-80
2021/10/03 00:13:04;;;;;;;3.08;2.67;;;;;;;20.04;58.39;98024.53;6096011;23;20097;-80
2021/10/03 00:15:33;;;;;;;2.45;2.15;;;;;;;20.06;58.48;98032.34;6096262;23;20097;-80
2021/10/03 00:18:02;;;;;;;3.00;2.25;;;;;;;20.06;58.61;98029.69;6096232;23;20030;-80
2021/10/03 00:20:30;;;;;;;5.57;2.60;;;;;;;20.08;58.37;98018.81;6096244;23;20101;-80
2021/10/03 00:22:58;;;;;;;4.40;2.55;;;;;;;20.09;58.33;98031.97;6095721;23;20029;-80
2021/10/03 00:25:26;;;;;;;5.35;2.30;;;;;;;20.12;58.54;98026.25;6095665;23;20033;-80
2021/10/03 00:27:54;;;;;;;4.95;2.92;;;;;;;20.13;58.43;98033.25;6095839;23;20022;-80
2021/10/03 00:30:23;;;;;;;3.85;2.58;;;;;;;20.16;58.47;98048.91;6096279;23;20029;-80
2021/10/03 00:33:00;;;;;;;4.05;2.70;;;;;;;20.15;58.67;98035.72;6095726;23;20097;-80
2021/10/03 00:35:28;;;;;;;2.63;2.40;;;;;;;20.19;58.67;98045.03;6096227;23;20404;-80
2021/10/03 00:37:55;;;;;;;2.92;2.22;;;;;;;20.19;58.74;98039.69;6097907;23;20672;-80
2021/10/03 00:40:22;;;;;;;3.17;2.35;;;;;;;20.18;58.85;98038.84;6096349;23;20408;-80
2021/10/03 00:42:50;;;;;;;3.72;2.38;;;;;;;20.14;59.20;98053.59;6096204;23;20022;-79
2021/10/03 00:45:17;;;;;;;3.13;2.58;;;;;;;20.10;59.20;98056.81;6095907;23;20029;-78
2021/10/03 00:47:44;;;;;;;4.60;2.78;;;;;;;20.04;59.62;98055.78;6095943;23;20022;-78
2021/10/03 00:50:15;;;;;;;3.22;2.60;;;;;;;19.97;59.73;98047.66;6096426;23;20029;-78
2021/10/03 00:52:44;;;;;;;6.18;2.88;;;;;;;19.88;59.93;98049.63;6096371;23;20462;-78
2021/10/03 00:55:24;;;;;;;3.70;2.60;;;;;;;19.74;61.11;98042.50;6096351;23;20102;-79
2021/10/03 00:57:52;;;;;;;2.88;2.47;;;;;;;19.70;60.34;98052.72;6096186;23;20022;-78
2021/10/03 01:00:24;;;;;;;3.28;2.45;;;;;;;19.60;61.85;98052.22;6095759;23;20030;-78
2021/10/03 01:02:52;;;;;;;4.32;2.85;;;;;;;19.54;61.32;98056.44;6096220;23;20342;-78
2021/10/03 01:05:22;;;;;;;2.83;2.30;;;;;;;19.45;62.07;98062.91;6095376;23;20029;-80
2021/10/03 01:07:50;;;;;;;6.07;2.90;;;;;;;19.39;61.90;98056.47;6095631;23;20097;-80
2021/10/03 01:10:22;;;;;;;3.92;2.80;;;;;;;19.34;62.22;98058.88;6095739;23;20045;-82
2021/10/03 01:12:57;;;;;;;3.17;2.67;;;;;;;19.28;62.87;98057.78;6095788;23;20034;-82
2021/10/03 01:15:26;;;;;;;3.72;2.45;;;;;;;19.25;62.55;98050.19;6096033;23;20019;-82
2021/10/03 01:17:53;;;;;;;5.30;2.88;;;;;;;19.22;63.11;98050.53;6096026;23;20106;-82
2021/10/03 01:20:23;;;;;;;3.13;2.70;;;;;;;19.18;63.56;98054.59;6095878;23;20102;-80
2021/10/03 01:22:51;;;;;;;5.03;2.78;;;;;;;19.17;63.46;98047.59;6096198;23;20349;-80
2021/10/03 01:25:19;;;;;;;3.38;2.30;;;;;;;19.15;63.10;98047.78;6095596;23;20022;-80
2021/10/03 01:27:46;;;;;;;4.68;2.45;;;;;;;19.16;63.45;98053.94;6095672;23;20105;-80
2021/10/03 01:30:17;;;;;;;2.70;2.42;;;;;;;19.12;63.99;98051.66;6095695;23;20040;-80
2021/10/03 01:32:44;;;;;;;4.03;2.70;;;;;;;19.12;64.09;98054.31;6095586;23;20033;-80
2021/10/03 01:35:12;;;;;;;3.28;2.42;;;;;;;19.11;63.80;98041.97;6095325;23;20101;-80
2021/10/03 01:37:40;;;;;;;4.05;2.70;;;;;;;19.11;63.68;98054.50;6095893;23;20066;-80
2021/10/03 01:40:09;;;;;;;3.20;2.65;;;;;;;19.10;64.02;98052.84;6097081;23;20028;-80
2021/10/03 01:42:36;;;;;;;3.40;2.65;;;;;;;19.10;64.14;98060.84;6096123;23;20399;-80
2021/10/03 01:45:06;;;;;;;5.88;2.72;;;;;;;19.08;64.59;98038.88;6095200;23;20033;-80
2021/10/03 01:47:33;;;;;;;4.90;2.38;;;;;;;19.08;64.18;98042.38;6095673;23;20049;-80
2021/10/03 01:50:00;;;;;;;4.65;2.65;;;;;;;19.08;64.20;98038.88;6096995;23;20029;-80
2021/10/03 01:52:30;;;;;;;2.72;2.42;;;;;;;19.06;65.02;98044.38;6097774;23;20393;-80
2021/10/03 01:55:04;;;;;;;3.22;2.75;;;;;;;19.07;65.26;98037.22;6097432;23;20422;-80
2021/10/03 01:57:30;;;;;;;2.78;2.53;;;;;;;19.11;64.00;98033.97;6097583;23;20030;-80
2021/10/03 01:59:59;;;;;;;2.33;2.13;;;;;;;19.11;64.17;98035.84;6097471;23;20037;-80
2021/10/03 02:02:26;;;;;;;2.80;2.40;;;;;;;19.12;64.27;98038.31;6097409;23;20022;-80
2021/10/03 02:04:56;;;;;;;4.50;2.88;;;;;;;19.11;64.99;98049.16;6097468;23;20308;-80
2021/10/03 02:07:23;;;;;;;3.97;2.60;;;;;;;19.15;64.18;98039.78;6097017;23;20029;-80
2021/10/03 02:09:58;;;;;;;3.65;2.17;;;;;;;19.12;65.30;98027.66;6097167;23;20042;-80
2021/10/03 02:12:25;;;;;;;3.45;2.67;;;;;;;19.15;64.34;98034.44;6097319;23;20115;-80
2021/10/03 02:14:52;;;;;;;3.28;2.40;;;;;;;19.17;64.34;98029.75;6096980;23;20030;-80
2021/10/03 02:17:20;;;;;;;3.50;2.42;;;;;;;19.18;64.31;98027.91;6097223;23;20024;-80
2021/10/03 02:19:46;;;;;;;4.82;2.35;;;;;;;19.20;63.97;98026.72;6097097;23;20037;-80
2021/10/03 02:22:14;;;;;;;5.43;2.80;;;;;;;19.20;64.34;98029.38;6096054;23;20105;-80
2021/10/03 02:24:41;;;;;;;2.80;2.30;;;;;;;19.23;64.08;98036.19;6096215;23;20033;-80
2021/10/03 02:27:08;;;;;;;3.65;2.78;;;;;;;19.23;64.15;98030.84;6097322;23;20094;-80
2021/10/03 02:29:47;;;;;;;2.45;2.13;;;;;;;19.19;65.38;98030.41;6098083;23;20121;-80
2021/10/03 02:32:21;;;;;;;2.85;2.30;;;;;;;19.24;64.94;98032.50;6096593;23;20109;-80
2021/10/03 02:34:48;;;;;;;5.07;2.45;;;;;;;19.27;63.90;98019.63;6096950;23;20101;-80
2021/10/03 02:37:15;;;;;;;3.45;2.22;;;;;;;19.30;64.29;98025.59;6096881;23;20019;-80
2021/10/03 02:39:42;;;;;;;3.90;2.30;;;;;;;19.32;63.84;98024.38;6098186;23;20029;-80
2021/10/03 02:42:26;;;;;;;2.42;2.10;;;;;;;19.30;64.11;98028.25;6096824;23;20023;-80
2021/10/03 02:44:53;;;;;;;2.70;2.20;;;;;;;19.36;63.57;98031.00;6096949;23;20488;-80
2021/10/03 02:47:31;;;;;;;2.15;1.90;;;;;;;19.35;63.86;98023.19;6096832;23;20105;-80
2021/10/03 02:49:57;;;;;;;2.72;2.10;;;;;;;19.40;63.75;98026.13;6097206;23;20416;-80
2021/10/03 02:52:28;;;;;;;4.47;2.35;;;;;;;19.39;64.00;98021.78;6097189;23;20028;-80
2021/10/03 02:54:55;;;;;;;2.65;2.25;;;;;;;19.43;63.95;98017.75;6096990;23;20145;-80
2021/10/03 02:57:22;;;;;;;4.13;2.58;;;;;;;19.44;63.86;98008.72;6097973;23;20102;-80
2021/10/03 02:59:49;;;;;;;3.08;2.45;;;;;;;19.44;63.50;98005.22;6096825;23;20037;-80
2021/10/03 03:02:15;;;;;;;4.35;2.20;;;;;;;19.44;63.74;97999.91;6096747;23;20023;-80
2021/10/03 03:04:42;;;;;;;2.33;2.10;;;;;;;19.44;63.49;97999.91;6096725;23;20065;-80
2021/10/03 03:07:10;;;;;;;2.92;2.17;;;;;;;19.44;63.44;98000.72;6096902;23;20496;-80
2021/10/03 03:09:37;;;;;;;1.95;1.80;;;;;;;19.45;63.54;97994.38;6097717;23;20023;-80
2021/10/03 03:12:04;;;;;;;2.13;1.92;;;;;;;19.47;63.53;97988.84;6096508;23;20101;-80
2021/10/03 03:14:31;;;;;;;4.75;2.38;;;;;;;19.46;63.17;97996.03;6096272;23;20030;-82
2021/10/03 03:17:16;;;;;;;2.42;2.17;;;;;;;19.44;63.62;97986.56;6097766;23;20033;-82
2021/10/03 03:19:43;;;;;;;2.88;2.05;;;;;;;19.51;62.97;97992.81;6096695;23;20157;-80
2021/10/03 03:22:12;;;;;;;2.17;1.98;;;;;;;19.51;62.74;97990.94;6096364;23;20022;-80
2021/10/03 03:24:40;;;;;;;2.97;2.15;;;;;;;19.54;62.78;97989.72;6096355;23;20026;-82
2021/10/03 03:27:09;;;;;;;2.40;2.20;;;;;;;19.55;62.60;97986.03;6096237;23;20022;-82
2021/10/03 03:29:36;;;;;;;4.05;2.05;;;;;;;19.58;62.64;97987.53;6096730;23;20505;-82
2021/10/03 03:32:04;;;;;;;3.20;2.08;;;;;;;19.59;62.71;97981.97;6096283;23;20097;-82
2021/10/03 03:34:31;;;;;;;5.18;2.40;;;;;;;19.60;62.70;97967.63;6096715;23;20379;-80
2021/10/03 03:36:58;;;;;;;2.95;1.88;;;;;;;19.62;62.61;97978.94;6096432;23;20022;-82
2021/10/03 03:39:36;;;;;;;2.58;1.83;;;;;;;19.60;62.47;97978.31;6096093;23;20023;-81
2021/10/03 03:42:03;;;;;;;2.38;1.98;;;;;;;19.64;62.38;97978.75;6096081;23;20066;-81
2021/10/03 03:44:33;;;;;;;4.68;1.92;;;;;;;19.62;62.51;97965.59;6096245;23;20101;-80
2021/10/03 03:47:03;;;;;;;2.60;2.30;;;;;;;19.63;62.22;97975.25;6096737;23;20342;-80
2021/10/03 03:49:30;;;;;;;2.65;1.92;;;;;;;19.65;62.17;97969.72;6096641;23;20033;-80
2021/10/03 03:51:57;;;;;;;2.20;1.67;;;;;;;19.66;62.12;97988.22;6095737;23;20022;-80
2021/10/03 03:54:27;;;;;;;2.47;2.00;;;;;;;19.63;62.59;97977.91;6096268;23;20352;-80
2021/10/03 03:56:53;;;;;;;5.13;1.70;;;;;;;19.63;62.17;97972.56;6097423;23;20185;-81
2021/10/03 03:59:35;;;;;;;2.55;1.83;;;;;;;19.58;62.69;97979.53;6096107;23;20029;-81
2021/10/03 04:02:03;;;;;;;2.63;1.85;;;;;;;19.59;62.45;97976.63;6096038;23;20022;-80
2021/10/03 04:04:31;;;;;;;2.60;1.98;;;;;;;19.56;62.63;97965.53;6096026;23;20057;-80
2021/10/03 04:07:02;;;;;;;2.60;2.00;;;;;;;19.52;62.46;97970.44;6096807;23;20022;-80
2021/10/03 04:09:31;;;;;;;2.20;1.90;;;;;;;19.47;62.65;97962.97;6106752;23;20018;-81
2021/10/03 04:11:58;;;;;;;4.40;1.88;;;;;;;19.45;62.54;97981.03;6096591;23;20350;-81
2021/10/03 04:14:34;;;;;;;2.47;2.00;;;;;;;19.38;63.26;97964.13;6095921;23;20081;-80
2021/10/03 04:17:01;;;;;;;2.63;1.75;;;;;;;19.38;62.88;97974.78;6096484;23;20027;-80
2021/10/03 04:19:28;;;;;;;3.83;1.80;;;;;;;19.35;63.07;97973.34;6096626;23;20027;-81
2021/10/03 04:21:57;;;;;;;2.50;1.85;;;;;;;19.31;63.24;97972.06;6096802;23;20028;-80
2021/10/03 04:24:24;;;;;;;5.63;2.50;;;;;;;19.30;62.97;97964.25;6095596;23;20041;-80
2021/10/03 04:26:50;;;;;;;2.50;1.58;;;;;;;19.27;63.07;97987.63;6095847;23;20022;-80
2021/10/03 04:29:17;;;;;;;3.00;2.08;;;;;;;19.28;63.47;97980.44;6095962;23;20101;-80
2021/10/03 04:31:44;;;;;;;4.85;2.08;;;;;;;19.26;63.25;97969.13;6095796;23;20029;-80
2021/10/03 04:34:12;;;;;;;2.00;1.77;;;;;;;19.25;63.24;97970.16;6095726;23;20029;-80
2021/10/03 04:36:39;;;;;;;3.25;2.30;;;;;;;19.25;63.48;97964.81;6095605;23;20108;-80
2021/10/03 04:39:06;;;;;;;2.53;1.70;;;;;;;19.24;63.40;97985.31;6096719;23;20022;-80
2021/10/03 04:41:32;;;;;;;2.20;1.92;;;;;;;19.23;63.33;97978.34;6095850;23;20104;-80
2021/10/03 04:44:03;;;;;;;2.17;1.95;;;;;;;19.21;63.70;97977.69;6096179;23;20338;-80
2021/10/03 04:46:30;;;;;;;2.33;2.13;;;;;;;19.21;63.38;97974.22;6095778;23;20023;-80
2021/10/03 04:49:08;;;;;;;4.43;2.03;;;;;;;19.17;64.04;97975.59;6096281;23;20022;-80
2021/10/03 04:51:35;;;;;;;2.00;1.67;;;;;;;19.19;63.75;97971.72;6096066;23;20506;-80
2021/10/03 04:54:11;;;;;;;3.58;1.92;;;;;;;19.14;64.26;97980.28;6095853;23;20022;-80
2021/10/03 04:56:38;;;;;;;3.30;2.10;;;;;;;19.16;63.97;97977.44;6096214;23;20093;-80
2021/10/03 04:59:05;;;;;;;2.40;1.95;;;;;;;19.13;63.72;97961.78;6095766;23;20105;-80
2021/10/03 05:01:32;;;;;;;2.63;2.10;;;;;;;19.12;64.01;97968.97;6095985;23;20342;-80
2021/10/03 05:03:59;;;;;;;2.28;1.80;;;;;;;19.10;63.93;97971.00;6096455;23;20026;-80
2021/10/03 05:06:26;;;;;;;3.92;2.05;;;;;;;19.08;64.19;97972.19;6096059;23;20353;-80
2021/10/03 05:08:54;;;;;;;3.47;2.15;;;;;;;19.05;64.50;97969.88;6095746;23;20030;-81
2021/10/03 05:11:21;;;;;;;2.28;2.08;;;;;;;19.03;64.11;97980.75;6096156;23;20036;-80
2021/10/03 05:13:47;;;;;;;2.88;2.30;;;;;;;19.01;64.19;97980.09;6095761;23;20442;-80
2021/10/03 05:16:19;;;;;;;2.53;2.33;;;;;;;18.98;65.00;97975.13;6096079;23;20022;-81
2021/10/03 05:18:46;;;;;;;2.95;2.55;;;;;;;18.99;64.61;97961.59;6097593;23;20327;-81
2021/10/03 05:21:14;;;;;;;3.25;2.58;;;;;;;18.98;64.41;97959.13;6095362;23;20023;-80
2021/10/03 05:23:41;;;;;;;3.55;2.60;;;;;;;18.97;64.81;97968.13;6096392;23;20105;-80
2021/10/03 05:26:08;;;;;;;3.25;2.63;;;;;;;18.98;64.53;97964.44;6098140;23;20034;-80
2021/10/03 05:29:11;;;;;;;7.90;2.53;;;;;;;18.93;65.01;97962.38;6098044;23;20401;-81
2021/10/03 05:31:43;;;;;;;4.40;2.55;;;;;;;18.97;64.94;97974.31;6097354;23;20019;-83
2021/10/03 05:34:09;;;;;;;3.30;2.60;;;;;;;18.99;64.72;97974.13;6097734;23;20454;-82
2021/10/03 05:36:36;;;;;;;4.53;2.70;;;;;;;18.99;64.63;97968.78;6099364;23;20109;-82
2021/10/03 05:39:18;;;;;;;3.63;2.47;;;;;;;18.95;65.24;97968.31;6097613;23;20105;-82
2021/10/03 05:41:45;;;;;;;3.03;2.55;;;;;;;19.00;64.40;97967.78;6097771;23;20477;-81
2021/10/03 05:44:26;;;;;;;5.32;2.50;;;;;;;18.97;64.82;97978.81;6097214;23;20109;-82
2021/10/03 05:46:52;;;;;;;3.35;2.60;;;;;;;19.01;64.78;97980.94;6097544;23;20025;-81
2021/10/03 05:49:39;;;;;;;3.83;2.70;;;;;;;18.98;65.17;97973.28;6097923;23;20022;-82
2021/10/03 05:52:06;;;;;;;3.10;2.40;;;;;;;19.04;64.74;97977.06;6097449;23;20097;-82
2021/10/03 05:54:33;;;;;;;6.38;2.83;;;;;;;19.05;64.45;97970.72;6097454;23;20022;-82
2021/10/03 05:57:18;;;;;;;3.28;2.75;;;;;;;19.03;64.87;97964.75;6097716;23;20405;-82
2021/10/03 05:59:45;;;;;;;3.17;2.72;;;;;;;19.10;64.44;97965.66;6097616;23;20026;-82
2021/10/03 06:02:18;;;;;;;4.70;2.88;;;;;;;19.09;64.88;97968.50;6097658;23;20358;-82
2021/10/03 06:04:45;;;;;;;;;;;;;;;19.12;64.28;97960.16;6097381;23;20028;-82
2021/10/03 06:07:24;;;;;;;5.40;2.80;;;;;;;19.16;64.20;97971.25;6097614;23;20404;-82
2021/10/03 06:09:50;;;;;;;4.05;2.90;;;;;;;19.19;63.97;97969.06;6097300;23;20105;-82
2021/10/03 06:12:17;;;;;;;3.67;3.17;;;;;;;19.19;63.84;97966.38;6097556;23;20442;-82
2021/10/03 06:14:46;;;;;;;3.47;3.15;;;;;;;19.19;63.94;97965.56;6097454;23;20529;-82
2021/10/03 06:17:12;;;;;;;6.00;3.60;;;;;;;19.21;64.33;97972.34;6097205;23;20025;-82
2021/10/03 06:19:48;;;;;;;6.13;3.22;;;;;;;19.19;64.24;97968.22;6097183;23;20023;-82
2021/10/03 06:22:15;;;;;;;4.60;2.92;;;;;;;19.23;63.89;97958.84;6097026;23;20022;-82
2021/10/03 06:24:42;;;;;;;5.45;3.42;;;;;;;19.24;64.00;97955.97;6097270;23;20345;-82
2021/10/03 06:27:08;;;;;;;3.90;3.50;;;;;;;19.26;63.95;97974.47;6096930;23;20029;-82
2021/10/03 06:29:55;;;;;;;4.18;3.63;;;;;;;19.23;64.02;97975.66;6097161;23;20028;-82
2021/10/03 06:32:34;;;;;;;4.22;3.25;;;;;;;19.26;63.91;97975.28;6096887;23;20030;-82
2021/10/03 06:35:01;;;;;;;4.75;3.42;;;;;;;19.32;63.68;97981.69;6097508;23;20518;-82
2021/10/03 06:37:35;;;;;;;5.35;3.63;;;;;;;19.32;64.07;97979.03;6098761;23;20410;-82
2021/10/03 06:40:01;;;;;;;;;;;;;;;19.35;63.90;97967.16;6097177;23;20105;-82
2021/10/03 06:42:52;;;;;;;5.00;3.45;;;;;;;19.39;63.97;97981.78;6098799;23;20317;-82
2021/10/03 06:45:19;;;;;;;5.78;3.78;;;;;;;19.46;63.41;97988.03;6096677;23;20023;-82
2021/10/03 06:47:49;;;;;;;5.10;3.85;;;;;;;19.47;63.48;97980.84;6096448;23;20023;-82
2021/10/03 06:50:17;;;;;;;4.15;3.50;;;;;;;19.49;63.57;97974.31;6096729;23;20101;-82
2021/10/03 06:52:48;;;;;;;5.15;4.35;;;;;;;19.50;63.76;97988.47;6096812;23;20031;-82
2021/10/03 06:55:17;;;;;;;6.57;4.40;;;;;;;19.55;63.69;97975.38;6096939;23;20027;-82
2021/10/03 06:57:44;;;;;;;5.72;4.70;;;;;;;19.57;63.53;97978.69;6097046;23;20023;-82
2021/10/03 07:00:44;;;;;;;4.28;3.67;;;;;;;19.56;63.59;97990.38;6097016;23;20338;-82
2021/10/03 07:03:11;;;;;;;6.43;4.45;;;;;;;19.64;63.51;97998.28;6096336;23;20082;-80
2021/10/03 07:05:38;;;;;;;6.43;4.30;;;;;;;19.66;63.50;97985.56;6096656;23;20402;-80
2021/10/03 07:08:12;;;;;;;5.43;4.80;;;;;;;19.65;63.49;97997.25;6096895;23;20101;-80
2021/10/03 07:10:39;;;;;;;5.75;4.47;;;;;;;19.70;63.26;97982.50;6097358;23;20097;-80
2021/10/03 07:13:26;;;;;;;5.45;4.25;;;;;;;19.67;63.47;97997.88;6096780;23;20345;-80
2021/10/03 07:15:53;;;;;;;8.05;3.85;;;;;;;19.73;63.24;97995.47;6096926;23;20041;-80
2021/10/03 07:18:36;;;;;;;5.20;4.13;;;;;;;19.69;63.58;97992.34;6097106;23;20047;-80
2021/10/03 07:21:03;;;;;;;6.90;4.03;;;;;;;19.75;63.56;97988.94;6096993;23;20097;-80
2021/10/03 07:23:32;;;;;;;9.32;3.90;;;;;;;19.77;63.17;97997.56;6096936;23;20350;-80
2021/10/03 07:25:59;;;;;;;4.95;4.45;;;;;;;19.79;63.15;97989.38;6096766;23;20089;-80
2021/10/03 07:28:37;;;;;;;5.50;4.40;;;;;;;19.76;63.60;97990.56;6096659;23;20022;-80
2021/10/03 07:31:09;;;;;;;4.70;4.20;;;;;;;19.81;63.13;97992.66;6096688;23;20049;-80
2021/10/03 07:33:36;;;;;;;5.03;4.15;;;;;;;19.84;63.25;98008.31;6097140;23;20033;-80
2021/10/03 07:36:03;;;;;;;5.95;4.22;;;;;;;19.86;63.13;98002.78;6096256;23;20083;-81
2021/10/03 07:38:39;;;;;;;6.07;4.70;;;;;;;19.83;63.30;97998.66;6096183;23;20102;-82
2021/10/03 07:41:06;;;;;;;5.88;4.18;;;;;;;19.88;62.85;98006.06;6096693;23;20346;-82
2021/10/03 07:43:54;;;;;;;6.18;4.18;;;;;;;19.85;63.31;98009.94;6097585;23;20863;-82
2021/10/03 07:46:21;;;;;;;8.25;4.70;;;;;;;19.90;62.99;98004.88;6096935;23;20029;-82
2021/10/03 07:48:48;;;;;;;7.57;4.55;;;;;;;19.91;62.87;97992.34;6096455;23;20451;-82
2021/10/03 07:51:16;;;;;;;5.13;3.97;;;;;;;19.90;63.16;98004.88;6096648;23;20033;-82
2021/10/03 07:53:43;;;;;;;6.60;4.15;;;;;;;19.91;63.06;97985.16;6096132;23;20037;-82
2021/10/03 07:56:18;;;;;;;5.50;4.00;;;;;;;19.90;63.58;97994.22;6096733;23;20125;-82
2021/10/03 07:58:45;;;;;;;4.82;3.75;;;;;;;19.94;63.39;98002.66;6096950;23;20028;-82
2021/10/03 08:01:32;;;;;;;6.10;4.30;;;;;;;19.92;63.59;97986.81;6096434;23;20434;-82
2021/10/03 08:04:00;;;;;;;7.95;4.57;;;;;;;19.99;63.32;97996.75;6096418;23;20101;-82
2021/10/03 08:06:31;;;;;;;6.50;4.80;;;;;;;20.00;63.54;98001.91;6096166;23;20093;-82
2021/10/03 08:08:59;;;;;;;5.30;4.50;;;;;;;20.02;63.27;97994.53;6095956;23;20098;-82
2021/10/03 08:11:54;;;;;;;5.10;4.47;;;;;;;20.03;63.73;98003.34;6096107;23;20029;-82
2021/10/03 08:14:21;;;;;;;6.57;3.83;;;;;;;20.12;63.43;98002.22;6095768;23;20019;-82
2021/10/03 08:16:48;;;;;;;7.18;4.25;;;;;;;20.15;63.37;98004.50;6096528;23;20033;-82
2021/10/03 08:19:15;;;;;;;7.40;4.30;;;;;;;20.20;63.20;98006.59;6096116;23;20022;-82
2021/10/03 08:21:45;;;;;;;5.03;4.35;;;;;;;20.19;62.97;98020.97;6096423;23;20030;-82
2021/10/03 08:24:12;;;;;;;5.80;4.47;;;;;;;20.24;62.86;98004.34;6096101;23;20488;-82
2021/10/03 08:27:20;;;;;;;5.25;3.78;;;;;;;20.21;63.11;98012.75;6095963;23;20022;-82
2021/10/03 08:29:47;;;;;;;8.82;4.53;;;;;;;20.29;62.88;98023.28;6095993;23;20030;-82
2021/10/03 08:32:14;;;;;;;5.53;4.22;;;;;;;20.29;62.67;98018.78;6095827;23;20032;-82
2021/10/03 08:34:54;;;;;;;7.57;4.28;;;;;;;20.27;62.79;98026.19;6095688;23;20043;-82
2021/10/03 08:37:21;;;;;;;5.47;4.35;;;;;;;20.33;62.81;98024.56;6095731;23;20025;-82
2021/10/03 08:39:52;;;;;;;4.63;4.18;;;;;;;20.32;62.82;98030.94;6095683;23;20097;-82
2021/10/03 08:42:19;;;;;;;4.47;4.07;;;;;;;20.35;62.47;98022.53;6096013;23;20023;-82
2021/10/03 08:44:47;;;;;;;4.88;4.38;;;;;;;20.35;62.49;98017.19;6095636;23;20037;-82
2021/10/03 08:47:42;;;;;;;5.43;4.20;;;;;;;20.32;63.07;98028.25;6096527;23;20052;-82
2021/10/03 08:50:13;;;;;;;4.90;4.35;;;;;;;20.36;62.78;98026.84;6096196;23;20068;-82
2021/10/03 08:52:44;;;;;;;5.68;4.35;;;;;;;20.35;63.27;98022.53;6096110;23;20093;-82
2021/10/03 08:55:13;;;;;;;4.60;3.92;;;;;;;20.37;62.92;98043.72;6096005;23;20101;-82
2021/10/03 08:57:44;;;;;;;4.65;4.10;;;;;;;20.35;63.01;98035.06;6099028;23;20023;-82
2021/10/03 09:00:19;;;;;;;7.00;4.50;;;;;;;20.35;63.09;98038.56;6099274;23;20398;-81
2021/10/03 09:03:06;;;;;;;6.75;4.90;;;;;;;20.32;62.88;98038.94;6099588;23;20027;-81
2021/10/03 09:05:39;;;;;;;6.32;4.10;;;;;;;20.36;62.71;98034.03;5960359;24;20024;-82
2021/10/03 09:08:27;;;;;;;5.53;4.43;;;;;;;20.31;63.04;98043.44;5960853;24;20138;-83
2021/10/03 09:11:12;;;;;;;5.07;4.43;;;;;;;20.32;63.05;98041.63;5960708;24;20071;-83
2021/10/03 09:13:42;;;;;;;5.72;4.22;;;;;;;20.35;62.98;98054.59;5961245;24;20059;-83
2021/10/03 09:16:34;;;;;;;6.50;4.35;;;;;;;20.30;63.20;98036.47;5960908;24;20028;-83
2021/10/03 09:19:18;;;;;;;5.25;4.07;;;;;;;20.36;62.92;98047.38;5961081;24;20494;-82
2021/10/03 09:21:45;;;;;;;6.38;3.95;;;;;;;20.36;62.98;98047.38;5960635;24;20042;-83
2021/10/03 09:24:20;;;;;;;4.63;4.07;;;;;;;20.34;63.06;98046.78;6055173;23;20109;-82
2021/10/03 09:27:18;;;;;;;7.47;3.72;;;;;;;20.32;63.06;98041.63;6099056;23;20022;-83
2021/10/03 09:29:44;;;;;;;4.38;3.63;;;;;;;20.38;62.84;98054.22;6098926;23;20026;-83
2021/10/03 09:36:01;;;;;;;4.35;3.95;;;;;;;20.36;63.19;98047.38;6100442;23;20097;-83
2021/10/03 09:38:29;;;;;;;5.35;4.07;;;;;;;20.39;62.80;98053.19;6098949;23;20054;-83
2021/10/03 09:44:20;;;;;;;9.45;4.05;;;;;;;20.39;62.90;98061.22;6100182;23;20101;-81
2021/10/03 09:46:56;;;;;;;4.65;3.47;;;;;;;20.37;63.51;98060.56;6098895;23;20022;-81
2021/10/03 09:49:26;;;;;;;4.55;4.10;;;;;;;20.40;63.40;98059.34;6099257;23;20022;-81
2021/10/03 09:51:54;;;;;;;5.38;4.00;;;;;;;20.42;63.51;98068.00;6098977;23;20023;-81
2021/10/03 09:54:23;;;;;;;5.82;4.00;;;;;;;20.44;63.35;98066.78;6098998;23;20089;-81
2021/10/03 09:56:51;;;;;;;3.95;3.55;;;;;;;20.48;63.32;98055.72;6099330;23;20521;-81
2021/10/03 09:59:23;;;;;;;6.45;4.30;;;;;;;20.48;63.42;98058.41;6099332;23;20022;-81
2021/10/03 10:01:50;;;;;;;4.20;3.53;;;;;;;20.52;63.24;98062.34;6099251;23;20026;-81
2021/10/03 10:04:30;;;;;;;4.35;3.75;;;;;;;20.49;63.46;98060.03;6098557;23;20355;-81
2021/10/03 10:06:59;;;;;;;4.85;4.20;;;;;;;20.55;63.31;98056.59;6099045;23;20026;-80
2021/10/03 10:09:29;;;;;;;4.18;3.63;;;;;;;20.54;63.26;98057.59;6097747;23;20101;-81
2021/10/03 10:12:18;;;;;;;4.57;3.83;;;;;;;20.54;63.38;98055.78;6097790;23;20670;-80
2021/10/03 10:14:47;;;;;;;6.38;3.65;;;;;;;20.56;63.32;98071.63;6098462;23;20026;-83
2021/10/03 10:17:34;;;;;;;4.55;3.80;;;;;;;20.51;63.67;98060.66;6097063;23;20098;-81
2021/10/03 10:20:13;;;;;;;5.60;3.70;;;;;;;20.52;63.75;98065.00;6096327;23;20031;-81
2021/10/03 10:23:04;;;;;;;6.57;3.97;;;;;;;20.50;63.97;98062.53;6096664;23;20053;-80
2021/10/03 10:25:44;;;;;;;7.93;4.22;;;;;;;20.49;64.10;98074.25;6098205;23;20018;-81
2021/10/03 10:28:31;;;;;;;4.03;3.53;;;;;;;20.47;63.93;98067.41;6097007;23;20037;-81
2021/10/03 10:31:03;;;;;;;6.38;3.50;;;;;;;20.48;64.01;98063.75;6097173;23;20033;-81
2021/10/03 10:34:05;;;;;;;5.93;3.65;;;;;;;20.43;64.15;98050.94;6098099;23;20109;-81
2021/10/03 10:36:59;;;;;;;5.80;3.60;;;;;;;20.44;63.78;98068.63;6090651;23;20062;-83
2021/10/03 10:39:26;;;;;;;7.00;4.03;;;;;;;20.40;63.76;98070.88;6096702;23;20029;-83
2021/10/03 10:42:18;;;;;;;4.93;3.65;;;;;;;20.33;64.26;98059.28;6096921;23;20494;-82
2021/10/03 10:44:44;;;;;;;6.90;4.03;;;;;;;20.36;63.95;98058.91;6097773;23;20303;-83
2021/10/03 10:47:13;;;;;;;5.68;3.75;;;;;;;20.33;64.24;98053.94;6096842;23;20029;-82
2021/10/03 10:49:54;;;;;;;4.50;3.85;;;;;;;20.28;65.17;98065.22;6096933;23;20450;-83
2021/10/03 10:52:22;;;;;;;4.68;3.80;;;;;;;20.31;64.69;98051.47;6096937;23;20038;-83
2021/10/03 10:55:34;;;;;;;3.92;3.53;;;;;;;20.30;65.20;98049.00;6096787;23;20052;-83
2021/10/03 10:58:00;;;;;;;4.70;3.60;;;;;;;20.37;64.89;98052.53;6087925;23;20093;-83
2021/10/03 11:00:31;;;;;;;5.00;3.60;;;;;;;20.41;65.05;98047.66;6097024;23;20026;-82
2021/10/03 11:03:16;;;;;;;3.85;3.45;;;;;;;20.42;65.34;98055.47;6096870;23;20386;-82
2021/10/03 11:05:45;;;;;;;6.15;4.07;;;;;;;20.52;65.00;98059.66;6096500;23;20105;-83
2021/10/03 11:08:18;;;;;;;6.05;3.78;;;;;;;20.55;64.84;98049.41;6096564;23;20022;-83
2021/10/03 11:11:09;;;;;;;4.35;3.80;;;;;;;20.60;65.01;98054.19;6096556;23;20028;-82
2021/10/03 11:13:45;;;;;;;4.45;3.60;;;;;;;20.70;64.86;98059.16;6096392;23;20018;-83
2021/10/03 11:16:59;;;;;;;4.47;3.70;;;;;;;20.77;65.19;98060.03;6096774;23;20073;-82
2021/10/03 11:19:37;;;;;;;4.70;3.70;;;;;;;20.90;64.55;98061.97;6096777;23;20022;-83
2021/10/03 11:22:35;;;;;;;4.65;3.88;;;;;;;20.96;64.46;98039.81;6095948;23;20028;-83
2021/10/03 11:25:02;;;;;;;3.90;3.50;;;;;;;21.04;63.55;98044.16;6096337;23;20018;-83
2021/10/03 11:28:17;;;;;;;4.47;3.47;;;;;;;21.06;63.42;98041.28;6097372;23;20058;-83
2021/10/03 11:31:38;;;;;;;5.43;3.95;;;;;;;21.08;63.33;98050.78;6098177;23;20489;-83
2021/10/03 11:34:06;;;;;;;3.50;3.20;;;;;;;21.17;63.25;98043.41;6096680;23;20432;-83
2021/10/03 11:36:53;;;;;;;4.57;3.60;;;;;;;21.14;62.97;98054.50;6096650;23;20106;-83
2021/10/03 11:40:07;;;;;;;3.50;3.20;;;;;;;21.18;62.99;98049.56;6096268;23;20025;-82
2021/10/03 11:42:42;;;;;;;4.07;3.17;;;;;;;21.24;62.78;98045.28;6096759;23;20089;-82
2021/10/03 11:45:40;;;;;;;4.13;3.30;;;;;;;21.25;63.11;98034.38;6096697;23;20516;-82
2021/10/03 11:48:30;;;;;;;3.92;3.15;;;;;;;21.28;62.65;98039.34;6079983;23;20105;-82
2021/10/03 11:50:57;;;;;;;3.30;3.00;;;;;;;21.34;62.31;98043.06;6096668;23;20031;-82
2021/10/03 11:53:30;;;;;;;5.00;3.45;;;;;;;21.32;62.26;98066.53;6096536;23;20029;-81
2021/10/03 11:56:10;;;;;;;3.97;3.47;;;;;;;21.26;61.96;98060.13;6096869;23;20493;-82
2021/10/03 11:58:39;;;;;;;4.28;3.80;;;;;;;21.30;62.03;98061.38;6097412;23;20023;-83
2021/10/03 12:01:06;;;;;;;3.45;3.13;;;;;;;21.31;61.89;98062.22;6096391;23;20350;-83
2021/10/03 12:03:50;;;;;;;5.32;3.42;;;;;;;21.24;61.68;98056.81;6096628;23;20327;-81
2021/10/03 12:06:22;;;;;;;5.50;3.30;;;;;;;21.30;62.01;98063.25;6097164;23;20049;-80